Airport View

Enter AWOS ICAO identifier for current METAR.

ex. KFNL

KFMH 080450Z 160012KT 10SM SCT008 BKN031 OVC041 19/17 A3011

8 Jul 2020 05:37

Other Area AWOS: KHYA - KMVY - KPYM - KEWB

TAF KFMH 072328Z 0800/0824 17008G14KT P6SM BKN009 BKN013 FM080800 18005KT P6SM OVC030 FM081000 19006KT P6SM OVC045 FM081200 19007KT P6SM OVC070